createdAt,value
2023-02-19T00:02:41.661Z,6.30
2023-02-19T00:05:34.736Z,5.90
2023-02-19T00:08:27.769Z,6.10
2023-02-19T00:11:22.269Z,8.80
2023-02-19T00:14:17.241Z,6.60
2023-02-19T00:17:10.325Z,6.30
2023-02-19T00:20:03.368Z,7.30
2023-02-19T00:22:56.477Z,5.60
2023-02-19T00:25:49.571Z,6.00
2023-02-19T00:28:42.736Z,6.40
2023-02-19T00:31:37.035Z,6.50
2023-02-19T00:34:29.754Z,7.00
2023-02-19T00:37:22.843Z,5.90
2023-02-19T00:40:16.686Z,5.60
2023-02-19T00:43:09.775Z,5.50
2023-02-19T00:46:02.902Z,5.80
2023-02-19T00:48:56.280Z,6.30
2023-02-19T00:51:49.433Z,6.10
2023-02-19T00:54:43.749Z,6.60
2023-02-19T00:57:36.865Z,8.30
2023-02-19T01:00:30.012Z,7.40
2023-02-19T01:03:23.595Z,6.90
2023-02-19T01:06:18.685Z,5.10
2023-02-19T01:09:11.174Z,5.80
2023-02-19T01:12:04.541Z,6.40
2023-02-19T01:14:57.605Z,6.10
2023-02-19T01:17:50.723Z,5.20
2023-02-19T01:20:45.073Z,5.70
2023-02-19T01:23:37.609Z,4.70
2023-02-19T01:26:32.067Z,6.80
2023-02-19T01:29:24.520Z,5.20
2023-02-19T01:32:17.704Z,4.50
2023-02-19T01:35:11.527Z,5.50
2023-02-19T01:38:04.072Z,7.30
2023-02-19T01:41:01.873Z,6.30
2023-02-19T01:44:04.330Z,6.10
2023-02-19T01:46:58.850Z,5.90
2023-02-19T01:49:53.471Z,5.80
2023-02-19T01:52:46.648Z,6.20
2023-02-19T01:55:39.840Z,4.60
2023-02-19T01:58:34.570Z,6.20
2023-02-19T02:01:27.040Z,5.40
2023-02-19T02:04:20.331Z,5.20
2023-02-19T02:07:27.332Z,4.10
2023-02-19T02:10:20.963Z,4.90
2023-02-19T02:13:13.610Z,3.50
2023-02-19T02:16:25.276Z,4.00
2023-02-19T02:19:33.410Z,3.60
2023-02-19T02:22:29.045Z,4.80
2023-02-19T02:25:53.657Z,5.20
2023-02-19T02:31:53.737Z,3.10
2023-02-19T02:34:54.082Z,3.20
2023-02-19T02:37:46.545Z,2.30
2023-02-19T02:40:39.862Z,3.50
2023-02-19T02:43:32.986Z,3.70
2023-02-19T02:46:29.032Z,2.60
2023-02-19T02:49:24.548Z,3.20
2023-02-19T02:52:38.234Z,3.00
2023-02-19T02:55:32.808Z,4.70
2023-02-19T02:58:25.857Z,3.70
2023-02-19T03:01:50.609Z,2.20
2023-02-19T03:05:06.221Z,4.30
2023-02-19T03:08:01.625Z,4.20
2023-02-19T03:10:56.365Z,3.00
2023-02-19T03:14:06.284Z,2.80
2023-02-19T03:17:23.928Z,2.80
2023-02-19T03:20:18.335Z,3.20
2023-02-19T03:23:11.074Z,3.50
2023-02-19T03:26:05.543Z,2.80
2023-02-19T03:29:16.281Z,1.60
2023-02-19T03:32:12.167Z,2.10
2023-02-19T03:35:08.513Z,1.30
2023-02-19T03:38:07.869Z,2.00
2023-02-19T03:41:04.529Z,2.10
2023-02-19T03:44:01.998Z,1.10
2023-02-19T03:46:57.664Z,0.80
2023-02-19T03:49:55.580Z,0.50
2023-02-19T03:52:55.386Z,1.00
2023-02-19T03:55:53.576Z,0.70
2023-02-19T03:58:51.933Z,0.30
2023-02-19T04:01:47.774Z,0.70
2023-02-19T04:04:42.399Z,0.50
2023-02-19T04:07:36.799Z,0.50
2023-02-19T04:10:29.289Z,2.40
2023-02-19T04:13:25.778Z,0.80
2023-02-19T04:16:22.607Z,1.30
2023-02-19T04:19:19.447Z,2.20
2023-02-19T04:22:11.943Z,1.60
2023-02-19T04:25:05.232Z,0.80
2023-02-19T04:27:58.751Z,1.60
2023-02-19T04:30:52.090Z,1.00
2023-02-19T04:33:45.175Z,0.90
2023-02-19T04:36:38.213Z,1.30
2023-02-19T04:39:32.324Z,2.80
2023-02-19T04:42:25.443Z,1.20
2023-02-19T04:45:18.854Z,1.80
2023-02-19T04:48:12.577Z,2.70
2023-02-19T04:51:09.984Z,1.50
2023-02-19T04:54:02.696Z,1.50
2023-02-19T04:56:56.013Z,3.00
2023-02-19T04:59:49.969Z,2.10
2023-02-19T05:02:42.998Z,1.40
2023-02-19T05:05:36.852Z,2.60
2023-02-19T05:08:30.048Z,1.20
2023-02-19T05:11:23.898Z,2.20
2023-02-19T05:14:17.236Z,3.80
2023-02-19T05:17:10.048Z,1.40
2023-02-19T05:20:03.280Z,1.70
2023-02-19T05:22:56.351Z,1.30
2023-02-19T05:25:49.445Z,3.00
2023-02-19T05:28:42.533Z,1.50
2023-02-19T05:31:35.787Z,1.40
2023-02-19T05:34:29.288Z,3.00
2023-02-19T05:37:22.422Z,3.00
2023-02-19T05:40:15.891Z,0.70
2023-02-19T05:43:09.057Z,0.80
2023-02-19T05:46:03.400Z,3.80
2023-02-19T05:48:56.841Z,0.70
2023-02-19T05:51:49.297Z,1.30
2023-02-19T05:54:43.019Z,0.80
2023-02-19T05:57:36.030Z,0.80
2023-02-19T06:00:29.217Z,0.60
2023-02-19T06:03:22.796Z,0.60
2023-02-19T06:06:18.451Z,0.60
2023-02-19T06:09:11.312Z,0.70
2023-02-19T06:12:04.569Z,1.30
2023-02-19T06:14:57.702Z,0.60
2023-02-19T06:17:50.969Z,0.50
2023-02-19T06:20:44.069Z,0.50
2023-02-19T06:23:37.103Z,0.60
2023-02-19T06:26:30.239Z,0.50
2023-02-19T06:29:23.747Z,0.50
2023-02-19T06:32:16.928Z,0.70
2023-02-19T06:35:11.754Z,1.10
2023-02-19T06:38:04.911Z,0.50
2023-02-19T06:41:00.523Z,0.70
2023-02-19T06:43:53.858Z,0.90
2023-02-19T06:46:46.766Z,0.50
2023-02-19T06:49:41.150Z,0.70
2023-02-19T06:52:33.896Z,0.70
2023-02-19T06:55:27.203Z,1.70
2023-02-19T06:58:20.300Z,1.70
2023-02-19T07:01:15.151Z,1.70
2023-02-19T07:04:09.025Z,1.20
2023-02-19T07:07:02.265Z,1.30
2023-02-19T07:09:55.374Z,1.40
2023-02-19T07:12:48.452Z,1.30
2023-02-19T07:15:41.770Z,1.20
2023-02-19T07:18:35.096Z,0.80
2023-02-19T07:21:29.680Z,1.80
2023-02-19T07:24:22.867Z,1.90
2023-02-19T07:27:16.099Z,1.00
2023-02-19T07:30:11.973Z,0.70
2023-02-19T07:33:04.555Z,1.60
2023-02-19T07:35:57.855Z,1.40
2023-02-19T07:38:57.070Z,2.20
2023-02-19T07:41:49.551Z,1.30
2023-02-19T07:44:42.707Z,1.40
2023-02-19T07:47:35.835Z,2.00
2023-02-19T07:50:29.052Z,1.00
2023-02-19T07:53:22.726Z,2.90
2023-02-19T07:56:16.610Z,0.90
2023-02-19T07:59:09.771Z,0.80
2023-02-19T08:02:20.606Z,1.80
2023-02-19T08:05:14.422Z,0.80
2023-02-19T08:08:08.140Z,1.60
2023-02-19T08:11:21.263Z,0.70
2023-02-19T08:14:14.281Z,0.60
2023-02-19T08:17:07.444Z,1.00
2023-02-19T08:20:00.860Z,1.80
2023-02-19T08:22:53.918Z,2.90
2023-02-19T08:25:47.118Z,2.50
2023-02-19T08:28:40.700Z,0.90
2023-02-19T08:31:33.361Z,1.40
2023-02-19T08:34:25.954Z,1.40
2023-02-19T08:37:18.407Z,1.40
2023-02-19T08:40:12.350Z,2.50
2023-02-19T08:43:08.316Z,1.00
2023-02-19T08:48:52.390Z,1.10
2023-02-19T08:51:45.015Z,0.80
2023-02-19T08:54:37.697Z,2.00
2023-02-19T08:57:30.281Z,2.30
2023-02-19T09:00:23.381Z,1.20
2023-02-19T09:03:16.179Z,1.50
2023-02-19T09:06:09.669Z,1.60
2023-02-19T09:09:02.283Z,2.50
2023-02-19T09:11:54.829Z,2.80
2023-02-19T09:14:48.588Z,2.10
2023-02-19T09:17:41.194Z,1.10
2023-02-19T09:20:34.966Z,2.10
2023-02-19T09:23:27.723Z,1.80
2023-02-19T09:26:20.330Z,2.90
2023-02-19T09:29:13.142Z,2.80
2023-02-19T09:32:05.830Z,1.70
2023-02-19T09:34:58.702Z,1.50
2023-02-19T09:37:52.287Z,4.30
2023-02-19T09:40:44.938Z,2.00
2023-02-19T09:43:37.889Z,3.10
2023-02-19T09:46:33.673Z,3.00
2023-02-19T09:49:30.176Z,4.20
2023-02-19T09:52:28.502Z,2.40
2023-02-19T09:55:25.298Z,3.60
2023-02-19T09:58:27.158Z,3.00
2023-02-19T10:01:19.802Z,2.90
2023-02-19T10:04:13.719Z,1.70
2023-02-19T10:07:08.374Z,3.00
2023-02-19T10:10:03.184Z,3.00
2023-02-19T10:12:57.005Z,1.60
2023-02-19T10:15:51.593Z,1.90
2023-02-19T10:18:45.161Z,3.90
2023-02-19T10:21:37.702Z,3.60
2023-02-19T10:24:31.516Z,4.60
2023-02-19T10:27:24.367Z,1.80
2023-02-19T10:30:21.601Z,4.00
2023-02-19T10:33:15.895Z,2.40
2023-02-19T10:36:25.249Z,3.20
2023-02-19T10:39:42.216Z,2.50
2023-02-19T10:42:34.807Z,2.80
2023-02-19T10:45:30.605Z,4.30
2023-02-19T10:48:30.486Z,5.80
2023-02-19T10:51:25.441Z,3.20
2023-02-19T10:54:25.278Z,2.60
2023-02-19T10:57:35.148Z,3.60
2023-02-19T11:00:30.502Z,3.70
2023-02-19T11:03:25.873Z,4.20
2023-02-19T11:06:20.203Z,5.20
2023-02-19T11:09:26.574Z,3.90
2023-02-19T11:12:26.104Z,5.40
2023-02-19T11:15:26.229Z,5.20
2023-02-19T11:18:24.461Z,6.40
2023-02-19T11:21:32.930Z,7.40
2023-02-19T11:24:33.822Z,4.70
2023-02-19T11:27:26.930Z,6.70
2023-02-19T11:30:38.351Z,6.70
2023-02-19T11:33:31.650Z,5.90
2023-02-19T11:36:34.262Z,4.90
2023-02-19T11:39:31.394Z,8.30
2023-02-19T11:42:37.610Z,4.00
2023-02-19T11:45:39.540Z,4.20
2023-02-19T11:48:59.748Z,5.40
2023-02-19T11:52:14.643Z,7.10
2023-02-19T11:55:14.529Z,6.30
2023-02-19T11:58:19.234Z,5.50
2023-02-19T12:01:15.353Z,6.40
2023-02-19T12:05:02.733Z,6.40
2023-02-19T12:08:34.861Z,7.20
2023-02-19T12:11:38.666Z,9.30
2023-02-19T12:15:06.369Z,7.10
2023-02-19T12:18:23.034Z,7.00
2023-02-19T12:21:25.414Z,6.40
2023-02-19T12:24:57.304Z,4.30
2023-02-19T12:28:00.127Z,6.70
2023-02-19T12:31:17.612Z,6.00
2023-02-19T12:34:25.441Z,9.30
2023-02-19T12:37:28.070Z,7.30
2023-02-19T12:40:31.229Z,7.10
2023-02-19T12:43:24.370Z,7.50
2023-02-19T12:46:21.452Z,6.20
2023-02-19T12:49:17.639Z,6.20
2023-02-19T12:52:14.826Z,5.50
2023-02-19T12:55:17.816Z,3.60
2023-02-19T12:58:14.246Z,5.10
2023-02-19T13:01:07.541Z,7.20
2023-02-19T13:04:14.839Z,7.30
2023-02-19T13:07:10.146Z,6.50
2023-02-19T13:10:05.322Z,6.60
2023-02-19T13:12:58.191Z,7.30
2023-02-19T13:15:52.363Z,7.00
2023-02-19T13:18:47.247Z,6.30
2023-02-19T13:21:57.725Z,9.20
2023-02-19T13:24:51.474Z,6.80
2023-02-19T13:28:02.444Z,9.70
2023-02-19T13:31:08.597Z,6.60
2023-02-19T13:34:06.232Z,6.90
2023-02-19T13:36:58.878Z,7.60
2023-02-19T13:39:54.125Z,5.40
2023-02-19T13:42:49.096Z,6.10
2023-02-19T13:45:44.406Z,6.10
2023-02-19T13:48:37.994Z,8.20
2023-02-19T13:51:52.312Z,7.60
2023-02-19T13:54:44.986Z,8.90
2023-02-19T13:57:39.193Z,10.80
2023-02-19T14:00:53.495Z,7.10
2023-02-19T14:03:54.337Z,7.10
2023-02-19T14:07:37.181Z,6.00
2023-02-19T14:11:05.011Z,7.90
2023-02-19T14:14:09.603Z,9.80
2023-02-19T14:17:17.574Z,6.00
2023-02-19T14:20:43.036Z,8.80
2023-02-19T14:23:35.679Z,11.00
2023-02-19T14:26:28.299Z,10.20
2023-02-19T14:29:20.740Z,10.70
2023-02-19T14:32:14.464Z,7.20
2023-02-19T14:35:07.404Z,9.10
2023-02-19T14:37:59.875Z,7.40
2023-02-19T14:40:53.491Z,8.30
2023-02-19T14:43:45.993Z,7.40
2023-02-19T14:46:40.613Z,10.10
2023-02-19T14:49:37.300Z,10.70
2023-02-19T14:52:32.148Z,7.60
2023-02-19T14:55:26.718Z,7.30
2023-02-19T14:58:22.040Z,8.10
2023-02-19T15:01:31.100Z,8.10
2023-02-19T15:04:28.818Z,4.80
2023-02-19T15:07:23.582Z,10.70
2023-02-19T15:10:16.689Z,11.50
2023-02-19T15:13:12.038Z,7.80
2023-02-19T15:16:04.895Z,10.30
2023-02-19T15:18:57.623Z,7.30
2023-02-19T15:21:50.604Z,5.80
2023-02-19T15:24:48.593Z,11.70
2023-02-19T15:27:41.908Z,8.80
2023-02-19T15:30:34.688Z,9.90
2023-02-19T15:33:28.702Z,7.40
2023-02-19T15:36:28.549Z,8.30
2023-02-19T15:39:25.427Z,9.20
2023-02-19T15:42:22.130Z,7.90
2023-02-19T15:45:20.683Z,8.70
2023-02-19T15:48:15.723Z,6.50
2023-02-19T15:51:10.739Z,5.60
2023-02-19T15:54:11.909Z,9.60
2023-02-19T15:57:06.439Z,10.60
2023-02-19T16:00:00.933Z,11.30
2023-02-19T16:02:53.609Z,25.00
2023-02-19T16:05:46.540Z,15.50
2023-02-19T16:08:39.653Z,11.70
2023-02-19T16:11:36.732Z,9.60
2023-02-19T16:14:33.703Z,27.40
2023-02-19T16:17:28.052Z,9.30
2023-02-19T16:20:25.111Z,8.50
2023-02-19T16:23:22.004Z,9.70
2023-02-19T16:26:14.606Z,6.50
2023-02-19T16:29:12.526Z,8.00
2023-02-19T16:32:06.789Z,6.20
2023-02-19T16:34:59.440Z,5.90
2023-02-19T16:38:01.925Z,6.70
2023-02-19T16:41:16.320Z,7.50
2023-02-19T16:44:24.186Z,10.60
2023-02-19T16:47:33.591Z,5.10
2023-02-19T16:50:27.787Z,9.60
2023-02-19T16:53:24.669Z,9.80
2023-02-19T16:56:22.022Z,9.10
2023-02-19T16:59:14.620Z,11.10
2023-02-19T17:02:09.056Z,8.70
2023-02-19T17:05:02.710Z,10.80
2023-02-19T17:07:55.246Z,9.10
2023-02-19T17:10:47.891Z,9.80
2023-02-19T17:13:40.346Z,10.00
2023-02-19T17:16:39.847Z,10.40
2023-02-19T17:19:32.628Z,10.10
2023-02-19T17:22:25.320Z,12.50
2023-02-19T17:25:18.007Z,9.40
2023-02-19T17:28:10.667Z,9.50
2023-02-19T17:31:04.514Z,6.90
2023-02-19T17:33:57.058Z,10.00
2023-02-19T17:36:51.848Z,8.60
2023-02-19T17:39:44.471Z,8.40
2023-02-19T17:42:36.940Z,8.30
2023-02-19T17:45:29.428Z,8.80
2023-02-19T17:48:21.976Z,8.10
2023-02-19T17:51:14.792Z,10.40
2023-02-19T17:54:08.442Z,12.50
2023-02-19T17:57:01.156Z,9.20
2023-02-19T17:59:53.772Z,10.10
2023-02-19T18:02:46.343Z,7.30
2023-02-19T18:05:38.881Z,8.60
2023-02-19T18:08:31.539Z,12.00
2023-02-19T18:11:24.322Z,8.30
2023-02-19T18:14:17.332Z,10.10
2023-02-19T18:17:09.965Z,9.30
2023-02-19T18:20:04.417Z,10.80
2023-02-19T18:22:57.082Z,8.10
2023-02-19T18:25:49.568Z,8.40
2023-02-19T18:28:42.464Z,10.90
2023-02-19T18:31:37.492Z,9.60
2023-02-19T18:34:30.095Z,10.60
2023-02-19T18:37:24.731Z,9.30
2023-02-19T18:40:17.938Z,8.00
2023-02-19T18:43:10.522Z,9.20
2023-02-19T18:46:03.193Z,13.10
2023-02-19T18:48:55.665Z,10.40
2023-02-19T18:51:48.325Z,10.80
2023-02-19T18:54:40.868Z,9.40
2023-02-19T18:57:33.493Z,10.30
2023-02-19T19:00:27.602Z,9.90
2023-02-19T19:03:20.701Z,13.70
2023-02-19T19:06:13.995Z,32.00
2023-02-19T19:09:07.486Z,29.70
2023-02-19T19:12:00.839Z,26.20
2023-02-19T19:14:53.904Z,10.60
2023-02-19T19:17:47.214Z,11.60
2023-02-19T19:20:40.468Z,8.70
2023-02-19T19:23:33.696Z,10.60
2023-02-19T19:26:26.971Z,11.20
2023-02-19T19:29:22.054Z,8.40
2023-02-19T19:32:15.300Z,9.70
2023-02-19T19:35:09.497Z,14.90
2023-02-19T19:38:02.128Z,11.30
2023-02-19T19:40:54.727Z,15.40
2023-02-19T19:43:47.380Z,23.80
2023-02-19T19:46:45.465Z,14.30
2023-02-19T19:49:38.079Z,15.80
2023-02-19T19:52:30.614Z,10.50
2023-02-19T19:55:23.341Z,11.60
2023-02-19T19:58:16.694Z,8.40
2023-02-19T20:01:09.512Z,10.20
2023-02-19T20:04:02.123Z,8.80
2023-02-19T20:06:54.797Z,10.30
2023-02-19T20:09:50.624Z,8.60
2023-02-19T20:12:43.939Z,9.80
2023-02-19T20:15:36.735Z,10.70
2023-02-19T20:18:30.505Z,12.50
2023-02-19T20:21:23.179Z,15.60
2023-02-19T20:24:19.143Z,11.50
2023-02-19T20:30:02.962Z,14.60
2023-02-19T20:32:55.586Z,9.00
2023-02-19T20:35:48.457Z,10.10
2023-02-19T20:38:43.461Z,11.00
2023-02-19T20:41:36.124Z,8.40
2023-02-19T20:44:28.868Z,10.00
2023-02-19T20:47:21.396Z,10.50
2023-02-19T20:50:18.558Z,10.70
2023-02-19T20:53:11.158Z,10.20
2023-02-19T20:56:05.485Z,9.60
2023-02-19T20:58:58.154Z,10.20
2023-02-19T21:01:50.825Z,11.30
2023-02-19T21:04:43.918Z,9.30
2023-02-19T21:07:36.529Z,11.10
2023-02-19T21:10:29.111Z,11.00
2023-02-19T21:13:21.726Z,11.50
2023-02-19T21:16:14.711Z,9.80
2023-02-19T21:19:07.666Z,8.80
2023-02-19T21:22:00.762Z,10.90
2023-02-19T21:24:54.948Z,8.80
2023-02-19T21:27:47.395Z,7.30
2023-02-19T21:30:40.315Z,12.70
2023-02-19T21:33:33.876Z,8.40
2023-02-19T21:36:27.449Z,13.90
2023-02-19T21:39:22.163Z,7.30
2023-02-19T21:42:14.813Z,9.50
2023-02-19T21:45:10.415Z,12.90
2023-02-19T21:48:03.079Z,8.80
2023-02-19T21:50:56.249Z,8.00
2023-02-19T21:53:49.399Z,8.80
2023-02-19T21:56:42.504Z,8.20
2023-02-19T21:59:35.580Z,10.50
2023-02-19T22:02:28.640Z,13.00
2023-02-19T22:05:21.898Z,10.20
2023-02-19T22:08:17.499Z,8.20
2023-02-19T22:11:10.709Z,12.20
2023-02-19T22:14:03.881Z,7.40
2023-02-19T22:16:57.246Z,10.30
2023-02-19T22:19:50.292Z,8.90
2023-02-19T22:22:44.130Z,9.40
2023-02-19T22:25:37.252Z,9.00
2023-02-19T22:28:30.346Z,9.20
2023-02-19T22:31:25.439Z,10.00
2023-02-19T22:34:18.750Z,9.40
2023-02-19T22:37:11.815Z,8.90
2023-02-19T22:40:06.739Z,9.90
2023-02-19T22:42:59.353Z,12.50
2023-02-19T22:45:52.652Z,12.90
2023-02-19T22:48:45.956Z,10.00
2023-02-19T22:51:39.254Z,12.00
2023-02-19T22:54:32.426Z,9.30
2023-02-19T22:57:25.533Z,12.60
2023-02-19T23:00:23.043Z,9.80
2023-02-19T23:03:15.964Z,10.70
2023-02-19T23:06:10.536Z,13.20
2023-02-19T23:09:05.986Z,11.50
2023-02-19T23:12:04.899Z,11.00
2023-02-19T23:14:57.342Z,8.00
2023-02-19T23:17:50.403Z,9.10
2023-02-19T23:20:43.706Z,12.80
2023-02-19T23:23:36.809Z,10.90
2023-02-19T23:26:30.041Z,11.30
2023-02-19T23:29:25.674Z,9.30
2023-02-19T23:32:20.889Z,9.10
2023-02-19T23:35:13.905Z,10.70
2023-02-19T23:38:06.980Z,8.70
2023-02-19T23:41:00.108Z,11.80
2023-02-19T23:43:53.414Z,10.90
2023-02-19T23:46:46.578Z,10.50
2023-02-19T23:49:39.718Z,9.20
2023-02-19T23:52:34.801Z,10.60
2023-02-19T23:55:28.085Z,11.00
2023-02-19T23:58:21.185Z,12.20
